sensor_id;sensor_type;location;lat;lon;timestamp;P1;durP1;ratioP1;P2;durP2;ratioP2
3941;SDS011;1985;48.592;8.850;2023-02-28T00:01:30;12.77;;;2.20;;
3941;SDS011;1985;48.592;8.850;2023-02-28T00:03:56;11.10;;;1.80;;
3941;SDS011;1985;48.592;8.850;2023-02-28T00:06:22;9.48;;;2.10;;
3941;SDS011;1985;48.592;8.850;2023-02-28T00:08:49;11.13;;;2.42;;
3941;SDS011;1985;48.592;8.850;2023-02-28T00:11:15;10.38;;;2.10;;
3941;SDS011;1985;48.592;8.850;2023-02-28T00:13:42;10.77;;;2.40;;
3941;SDS011;1985;48.592;8.850;2023-02-28T00:16:12;9.70;;;2.03;;
3941;SDS011;1985;48.592;8.850;2023-02-28T00:18:40;9.90;;;2.10;;
3941;SDS011;1985;48.592;8.850;2023-02-28T00:21:06;8.82;;;2.00;;
3941;SDS011;1985;48.592;8.850;2023-02-28T00:23:33;9.07;;;2.15;;
3941;SDS011;1985;48.592;8.850;2023-02-28T00:25:59;8.88;;;2.05;;
3941;SDS011;1985;48.592;8.850;2023-02-28T00:28:24;10.10;;;1.80;;
3941;SDS011;1985;48.592;8.850;2023-02-28T00:30:50;7.80;;;1.77;;
3941;SDS011;1985;48.592;8.850;2023-02-28T00:33:16;9.37;;;2.10;;
3941;SDS011;1985;48.592;8.850;2023-02-28T00:35:42;12.25;;;2.20;;
3941;SDS011;1985;48.592;8.850;2023-02-28T00:38:08;8.43;;;1.88;;
3941;SDS011;1985;48.592;8.850;2023-02-28T00:40:34;11.15;;;2.53;;
3941;SDS011;1985;48.592;8.850;2023-02-28T00:42:59;8.50;;;1.93;;
3941;SDS011;1985;48.592;8.850;2023-02-28T00:45:25;9.70;;;2.10;;
3941;SDS011;1985;48.592;8.850;2023-02-28T00:47:51;9.30;;;1.88;;
3941;SDS011;1985;48.592;8.850;2023-02-28T00:50:17;10.13;;;1.95;;
3941;SDS011;1985;48.592;8.850;2023-02-28T00:52:45;10.38;;;1.73;;
3941;SDS011;1985;48.592;8.850;2023-02-28T00:55:11;8.17;;;1.70;;
3941;SDS011;1985;48.592;8.850;2023-02-28T00:57:36;8.67;;;2.00;;
3941;SDS011;1985;48.592;8.850;2023-02-28T01:00:03;9.23;;;2.20;;
3941;SDS011;1985;48.592;8.850;2023-02-28T01:02:29;9.00;;;2.10;;
3941;SDS011;1985;48.592;8.850;2023-02-28T01:04:55;8.43;;;1.70;;
3941;SDS011;1985;48.592;8.850;2023-02-28T01:07:21;9.88;;;2.15;;
3941;SDS011;1985;48.592;8.850;2023-02-28T01:09:48;11.43;;;2.15;;
3941;SDS011;1985;48.592;8.850;2023-02-28T01:12:13;9.60;;;1.73;;
3941;SDS011;1985;48.592;8.850;2023-02-28T01:14:39;9.27;;;1.80;;
3941;SDS011;1985;48.592;8.850;2023-02-28T01:17:05;8.68;;;1.92;;
3941;SDS011;1985;48.592;8.850;2023-02-28T01:19:31;11.43;;;1.93;;
3941;SDS011;1985;48.592;8.850;2023-02-28T01:21:56;8.67;;;1.70;;
3941;SDS011;1985;48.592;8.850;2023-02-28T01:24:25;8.88;;;1.80;;
3941;SDS011;1985;48.592;8.850;2023-02-28T01:26:50;11.45;;;1.90;;
3941;SDS011;1985;48.592;8.850;2023-02-28T01:29:16;9.53;;;1.80;;
3941;SDS011;1985;48.592;8.850;2023-02-28T01:31:41;12.20;;;2.20;;
3941;SDS011;1985;48.592;8.850;2023-02-28T01:34:07;11.53;;;2.30;;
3941;SDS011;1985;48.592;8.850;2023-02-28T01:36:32;7.80;;;1.90;;
3941;SDS011;1985;48.592;8.850;2023-02-28T01:38:58;9.48;;;1.90;;
3941;SDS011;1985;48.592;8.850;2023-02-28T01:41:25;9.30;;;2.10;;
3941;SDS011;1985;48.592;8.850;2023-02-28T01:44:04;10.55;;;2.08;;
3941;SDS011;1985;48.592;8.850;2023-02-28T01:46:32;8.50;;;2.00;;
3941;SDS011;1985;48.592;8.850;2023-02-28T01:49:09;8.30;;;1.70;;
3941;SDS011;1985;48.592;8.850;2023-02-28T01:54:11;9.75;;;2.30;;
3941;SDS011;1985;48.592;8.850;2023-02-28T01:56:43;9.93;;;1.80;;
3941;SDS011;1985;48.592;8.850;2023-02-28T01:59:13;9.00;;;2.10;;
3941;SDS011;1985;48.592;8.850;2023-02-28T02:01:44;10.02;;;2.28;;
3941;SDS011;1985;48.592;8.850;2023-02-28T02:04:10;9.52;;;1.98;;
3941;SDS011;1985;48.592;8.850;2023-02-28T02:06:37;9.87;;;2.00;;
3941;SDS011;1985;48.592;8.850;2023-02-28T02:09:07;11.00;;;2.50;;
3941;SDS011;1985;48.592;8.850;2023-02-28T02:11:33;8.75;;;2.28;;
3941;SDS011;1985;48.592;8.850;2023-02-28T02:16:51;13.25;;;2.67;;
3941;SDS011;1985;48.592;8.850;2023-02-28T02:36:53;8.60;;;1.80;;
3941;SDS011;1985;48.592;8.850;2023-02-28T02:42:01;10.73;;;2.22;;
3941;SDS011;1985;48.592;8.850;2023-02-28T02:44:33;11.38;;;2.33;;
3941;SDS011;1985;48.592;8.850;2023-02-28T02:47:07;10.75;;;2.55;;
3941;SDS011;1985;48.592;8.850;2023-02-28T02:49:36;10.38;;;2.40;;
3941;SDS011;1985;48.592;8.850;2023-02-28T02:52:06;14.52;;;2.80;;
3941;SDS011;1985;48.592;8.850;2023-02-28T02:54:35;13.00;;;2.40;;
3941;SDS011;1985;48.592;8.850;2023-02-28T02:57:07;11.40;;;2.40;;
3941;SDS011;1985;48.592;8.850;2023-02-28T02:59:38;9.90;;;2.40;;
3941;SDS011;1985;48.592;8.850;2023-02-28T03:02:06;10.32;;;2.58;;
3941;SDS011;1985;48.592;8.850;2023-02-28T03:04:43;9.60;;;2.30;;
3941;SDS011;1985;48.592;8.850;2023-02-28T03:07:13;8.95;;;2.30;;
3941;SDS011;1985;48.592;8.850;2023-02-28T03:09:39;9.17;;;2.20;;
3941;SDS011;1985;48.592;8.850;2023-02-28T03:12:06;9.70;;;2.30;;
3941;SDS011;1985;48.592;8.850;2023-02-28T03:17:17;10.00;;;2.65;;
3941;SDS011;1985;48.592;8.850;2023-02-28T03:23:52;8.90;;;2.20;;
3941;SDS011;1985;48.592;8.850;2023-02-28T03:26:20;10.02;;;2.60;;
3941;SDS011;1985;48.592;8.850;2023-02-28T03:28:51;10.52;;;2.60;;
3941;SDS011;1985;48.592;8.850;2023-02-28T03:31:41;9.67;;;2.47;;
3941;SDS011;1985;48.592;8.850;2023-02-28T03:34:29;9.85;;;2.58;;
3941;SDS011;1985;48.592;8.850;2023-02-28T03:36:57;10.85;;;2.90;;
3941;SDS011;1985;48.592;8.850;2023-02-28T03:39:31;10.90;;;2.70;;
3941;SDS011;1985;48.592;8.850;2023-02-28T03:42:07;10.27;;;2.80;;
3941;SDS011;1985;48.592;8.850;2023-02-28T03:44:41;10.55;;;3.20;;
3941;SDS011;1985;48.592;8.850;2023-02-28T03:47:18;10.63;;;2.87;;
3941;SDS011;1985;48.592;8.850;2023-02-28T03:52:34;9.60;;;2.70;;
3941;SDS011;1985;48.592;8.850;2023-02-28T03:55:06;11.23;;;2.50;;
3941;SDS011;1985;48.592;8.850;2023-02-28T03:57:51;11.82;;;2.70;;
3941;SDS011;1985;48.592;8.850;2023-02-28T04:03:12;9.57;;;2.60;;
3941;SDS011;1985;48.592;8.850;2023-02-28T04:05:45;10.95;;;2.60;;
3941;SDS011;1985;48.592;8.850;2023-02-28T04:08:17;9.37;;;2.33;;
3941;SDS011;1985;48.592;8.850;2023-02-28T04:10:43;10.57;;;3.03;;
3941;SDS011;1985;48.592;8.850;2023-02-28T04:13:12;11.40;;;2.90;;
3941;SDS011;1985;48.592;8.850;2023-02-28T04:15:37;9.50;;;2.60;;
3941;SDS011;1985;48.592;8.850;2023-02-28T04:18:03;10.27;;;2.83;;
3941;SDS011;1985;48.592;8.850;2023-02-28T04:20:28;9.93;;;2.77;;
3941;SDS011;1985;48.592;8.850;2023-02-28T04:22:54;9.48;;;2.70;;
3941;SDS011;1985;48.592;8.850;2023-02-28T04:25:20;11.70;;;3.00;;
3941;SDS011;1985;48.592;8.850;2023-02-28T04:27:45;10.20;;;2.90;;
3941;SDS011;1985;48.592;8.850;2023-02-28T04:30:11;10.47;;;3.27;;
3941;SDS011;1985;48.592;8.850;2023-02-28T04:32:40;10.48;;;3.00;;
3941;SDS011;1985;48.592;8.850;2023-02-28T04:35:06;10.90;;;3.20;;
3941;SDS011;1985;48.592;8.850;2023-02-28T04:37:32;10.35;;;3.60;;
3941;SDS011;1985;48.592;8.850;2023-02-28T04:39:59;9.30;;;2.90;;
3941;SDS011;1985;48.592;8.850;2023-02-28T04:42:26;11.32;;;3.20;;
3941;SDS011;1985;48.592;8.850;2023-02-28T04:44:51;12.73;;;3.55;;
3941;SDS011;1985;48.592;8.850;2023-02-28T04:47:17;11.88;;;3.10;;
3941;SDS011;1985;48.592;8.850;2023-02-28T04:49:43;10.80;;;3.03;;
3941;SDS011;1985;48.592;8.850;2023-02-28T04:52:08;10.67;;;3.50;;
3941;SDS011;1985;48.592;8.850;2023-02-28T04:54:35;9.75;;;3.42;;
3941;SDS011;1985;48.592;8.850;2023-02-28T04:57:00;10.60;;;3.23;;
3941;SDS011;1985;48.592;8.850;2023-02-28T04:59:26;10.98;;;2.88;;
3941;SDS011;1985;48.592;8.850;2023-02-28T05:01:52;10.23;;;2.95;;
3941;SDS011;1985;48.592;8.850;2023-02-28T05:04:18;10.23;;;3.00;;
3941;SDS011;1985;48.592;8.850;2023-02-28T05:06:43;14.85;;;3.30;;
3941;SDS011;1985;48.592;8.850;2023-02-28T05:09:09;14.35;;;3.72;;
3941;SDS011;1985;48.592;8.850;2023-02-28T05:11:38;11.68;;;3.70;;
3941;SDS011;1985;48.592;8.850;2023-02-28T05:14:13;12.50;;;3.60;;
3941;SDS011;1985;48.592;8.850;2023-02-28T05:16:39;10.30;;;3.40;;
3941;SDS011;1985;48.592;8.850;2023-02-28T05:19:05;10.70;;;3.43;;
3941;SDS011;1985;48.592;8.850;2023-02-28T05:21:32;10.13;;;3.40;;
3941;SDS011;1985;48.592;8.850;2023-02-28T05:24:06;12.38;;;3.70;;
3941;SDS011;1985;48.592;8.850;2023-02-28T05:26:35;11.35;;;3.50;;
3941;SDS011;1985;48.592;8.850;2023-02-28T05:29:02;10.20;;;3.40;;
3941;SDS011;1985;48.592;8.850;2023-02-28T05:31:28;11.60;;;3.50;;
3941;SDS011;1985;48.592;8.850;2023-02-28T05:33:54;9.75;;;2.90;;
3941;SDS011;1985;48.592;8.850;2023-02-28T05:36:20;12.63;;;3.90;;
3941;SDS011;1985;48.592;8.850;2023-02-28T05:38:47;10.77;;;3.30;;
3941;SDS011;1985;48.592;8.850;2023-02-28T05:41:13;10.32;;;3.50;;
3941;SDS011;1985;48.592;8.850;2023-02-28T05:43:39;13.37;;;3.40;;
3941;SDS011;1985;48.592;8.850;2023-02-28T05:46:08;11.10;;;3.60;;
3941;SDS011;1985;48.592;8.850;2023-02-28T05:48:36;9.85;;;3.47;;
3941;SDS011;1985;48.592;8.850;2023-02-28T05:51:03;11.88;;;3.97;;
3941;SDS011;1985;48.592;8.850;2023-02-28T05:53:30;13.10;;;3.85;;
3941;SDS011;1985;48.592;8.850;2023-02-28T05:55:56;15.40;;;4.10;;
3941;SDS011;1985;48.592;8.850;2023-02-28T05:58:22;13.05;;;4.50;;
3941;SDS011;1985;48.592;8.850;2023-02-28T06:00:48;10.52;;;3.70;;
3941;SDS011;1985;48.592;8.850;2023-02-28T06:03:14;13.55;;;4.88;;
3941;SDS011;1985;48.592;8.850;2023-02-28T06:05:39;13.13;;;3.60;;
3941;SDS011;1985;48.592;8.850;2023-02-28T06:08:05;10.40;;;3.50;;
3941;SDS011;1985;48.592;8.850;2023-02-28T06:10:32;11.80;;;4.10;;
3941;SDS011;1985;48.592;8.850;2023-02-28T06:13:02;11.57;;;4.10;;
3941;SDS011;1985;48.592;8.850;2023-02-28T06:15:29;12.23;;;4.00;;
3941;SDS011;1985;48.592;8.850;2023-02-28T06:17:55;11.07;;;3.92;;
3941;SDS011;1985;48.592;8.850;2023-02-28T06:20:21;10.60;;;3.60;;
3941;SDS011;1985;48.592;8.850;2023-02-28T06:22:48;11.80;;;3.97;;
3941;SDS011;1985;48.592;8.850;2023-02-28T06:25:15;12.05;;;4.22;;
3941;SDS011;1985;48.592;8.850;2023-02-28T06:27:40;15.83;;;5.37;;
3941;SDS011;1985;48.592;8.850;2023-02-28T06:30:06;15.77;;;4.30;;
3941;SDS011;1985;48.592;8.850;2023-02-28T06:32:32;14.43;;;4.65;;
3941;SDS011;1985;48.592;8.850;2023-02-28T06:34:58;15.40;;;4.43;;
3941;SDS011;1985;48.592;8.850;2023-02-28T06:37:24;12.10;;;4.17;;
3941;SDS011;1985;48.592;8.850;2023-02-28T06:39:53;13.00;;;4.03;;
3941;SDS011;1985;48.592;8.850;2023-02-28T06:42:20;11.93;;;4.13;;
3941;SDS011;1985;48.592;8.850;2023-02-28T06:44:54;13.65;;;4.57;;
3941;SDS011;1985;48.592;8.850;2023-02-28T06:47:20;15.38;;;4.90;;
3941;SDS011;1985;48.592;8.850;2023-02-28T06:49:46;12.18;;;4.20;;
3941;SDS011;1985;48.592;8.850;2023-02-28T06:52:12;12.00;;;4.20;;
3941;SDS011;1985;48.592;8.850;2023-02-28T06:54:38;13.90;;;4.90;;
3941;SDS011;1985;48.592;8.850;2023-02-28T06:57:03;12.65;;;4.85;;
3941;SDS011;1985;48.592;8.850;2023-02-28T06:59:29;14.73;;;4.55;;
3941;SDS011;1985;48.592;8.850;2023-02-28T07:01:55;12.18;;;3.97;;
3941;SDS011;1985;48.592;8.850;2023-02-28T07:04:21;15.82;;;5.13;;
3941;SDS011;1985;48.592;8.850;2023-02-28T07:06:47;13.50;;;4.68;;
3941;SDS011;1985;48.592;8.850;2023-02-28T07:09:12;12.13;;;4.60;;
3941;SDS011;1985;48.592;8.850;2023-02-28T07:11:39;14.10;;;4.75;;
3941;SDS011;1985;48.592;8.850;2023-02-28T07:14:05;12.07;;;4.40;;
3941;SDS011;1985;48.592;8.850;2023-02-28T07:16:31;12.13;;;4.40;;
3941;SDS011;1985;48.592;8.850;2023-02-28T07:18:57;12.73;;;4.73;;
3941;SDS011;1985;48.592;8.850;2023-02-28T07:21:23;14.50;;;4.60;;
3941;SDS011;1985;48.592;8.850;2023-02-28T07:23:48;14.40;;;4.77;;
3941;SDS011;1985;48.592;8.850;2023-02-28T07:26:15;12.05;;;4.68;;
3941;SDS011;1985;48.592;8.850;2023-02-28T07:28:42;12.02;;;4.55;;
3941;SDS011;1985;48.592;8.850;2023-02-28T07:31:09;11.80;;;4.38;;
3941;SDS011;1985;48.592;8.850;2023-02-28T07:33:35;15.30;;;5.30;;
3941;SDS011;1985;48.592;8.850;2023-02-28T07:36:02;12.82;;;5.10;;
3941;SDS011;1985;48.592;8.850;2023-02-28T07:38:29;15.93;;;5.38;;
3941;SDS011;1985;48.592;8.850;2023-02-28T07:40:54;11.00;;;4.40;;
3941;SDS011;1985;48.592;8.850;2023-02-28T07:43:20;13.85;;;4.95;;
3941;SDS011;1985;48.592;8.850;2023-02-28T07:45:45;13.50;;;5.10;;
3941;SDS011;1985;48.592;8.850;2023-02-28T07:48:11;13.23;;;5.00;;
3941;SDS011;1985;48.592;8.850;2023-02-28T07:50:37;15.52;;;5.10;;
3941;SDS011;1985;48.592;8.850;2023-02-28T07:53:02;14.48;;;4.22;;
3941;SDS011;1985;48.592;8.850;2023-02-28T07:55:29;17.40;;;5.55;;
3941;SDS011;1985;48.592;8.850;2023-02-28T07:57:56;17.10;;;4.70;;
3941;SDS011;1985;48.592;8.850;2023-02-28T08:00:22;15.88;;;4.90;;
3941;SDS011;1985;48.592;8.850;2023-02-28T08:02:48;13.50;;;4.97;;
3941;SDS011;1985;48.592;8.850;2023-02-28T08:05:14;14.00;;;5.00;;
3941;SDS011;1985;48.592;8.850;2023-02-28T08:07:40;15.82;;;5.43;;
3941;SDS011;1985;48.592;8.850;2023-02-28T08:10:06;16.38;;;4.85;;
3941;SDS011;1985;48.592;8.850;2023-02-28T08:12:36;13.32;;;5.10;;
3941;SDS011;1985;48.592;8.850;2023-02-28T08:15:02;13.35;;;5.10;;
3941;SDS011;1985;48.592;8.850;2023-02-28T08:17:28;14.20;;;5.80;;
3941;SDS011;1985;48.592;8.850;2023-02-28T08:19:53;16.67;;;5.23;;
3941;SDS011;1985;48.592;8.850;2023-02-28T08:22:19;15.83;;;5.13;;
3941;SDS011;1985;48.592;8.850;2023-02-28T08:24:45;18.27;;;5.90;;
3941;SDS011;1985;48.592;8.850;2023-02-28T08:27:10;14.35;;;5.55;;
3941;SDS011;1985;48.592;8.850;2023-02-28T08:29:37;12.20;;;5.13;;
3941;SDS011;1985;48.592;8.850;2023-02-28T08:32:03;13.20;;;5.18;;
3941;SDS011;1985;48.592;8.850;2023-02-28T08:34:30;15.73;;;5.68;;
3941;SDS011;1985;48.592;8.850;2023-02-28T08:36:55;14.35;;;5.65;;
3941;SDS011;1985;48.592;8.850;2023-02-28T08:39:21;14.20;;;6.10;;
3941;SDS011;1985;48.592;8.850;2023-02-28T08:41:46;15.10;;;5.60;;
3941;SDS011;1985;48.592;8.850;2023-02-28T08:44:12;21.73;;;6.10;;
3941;SDS011;1985;48.592;8.850;2023-02-28T08:46:38;15.18;;;5.70;;
3941;SDS011;1985;48.592;8.850;2023-02-28T08:49:03;12.18;;;5.13;;
3941;SDS011;1985;48.592;8.850;2023-02-28T08:51:29;14.90;;;5.82;;
3941;SDS011;1985;48.592;8.850;2023-02-28T08:53:57;14.10;;;6.45;;
3941;SDS011;1985;48.592;8.850;2023-02-28T08:56:25;17.15;;;5.72;;
3941;SDS011;1985;48.592;8.850;2023-02-28T08:58:51;16.15;;;6.72;;
3941;SDS011;1985;48.592;8.850;2023-02-28T09:01:21;17.40;;;6.20;;
3941;SDS011;1985;48.592;8.850;2023-02-28T09:03:49;16.90;;;5.80;;
3941;SDS011;1985;48.592;8.850;2023-02-28T09:06:16;13.70;;;5.45;;
3941;SDS011;1985;48.592;8.850;2023-02-28T09:08:43;15.38;;;5.40;;
3941;SDS011;1985;48.592;8.850;2023-02-28T09:11:09;18.63;;;5.80;;
3941;SDS011;1985;48.592;8.850;2023-02-28T09:13:36;17.35;;;6.20;;
3941;SDS011;1985;48.592;8.850;2023-02-28T09:16:02;15.38;;;5.93;;
3941;SDS011;1985;48.592;8.850;2023-02-28T09:18:30;17.47;;;5.77;;
3941;SDS011;1985;48.592;8.850;2023-02-28T09:20:55;17.10;;;5.97;;
3941;SDS011;1985;48.592;8.850;2023-02-28T09:23:23;14.07;;;5.70;;
3941;SDS011;1985;48.592;8.850;2023-02-28T09:25:50;16.00;;;6.00;;
3941;SDS011;1985;48.592;8.850;2023-02-28T09:28:18;14.98;;;5.53;;
3941;SDS011;1985;48.592;8.850;2023-02-28T09:30:44;15.65;;;5.60;;
3941;SDS011;1985;48.592;8.850;2023-02-28T09:33:12;15.93;;;6.17;;
3941;SDS011;1985;48.592;8.850;2023-02-28T09:35:38;15.15;;;5.88;;
3941;SDS011;1985;48.592;8.850;2023-02-28T09:38:04;17.33;;;5.75;;
3941;SDS011;1985;48.592;8.850;2023-02-28T09:40:30;15.43;;;6.60;;
3941;SDS011;1985;48.592;8.850;2023-02-28T09:42:56;16.40;;;5.68;;
3941;SDS011;1985;48.592;8.850;2023-02-28T09:47:50;15.90;;;7.18;;
3941;SDS011;1985;48.592;8.850;2023-02-28T09:52:54;17.63;;;5.93;;
3941;SDS011;1985;48.592;8.850;2023-02-28T09:57:50;28.17;;;10.98;;
3941;SDS011;1985;48.592;8.850;2023-02-28T10:05:42;17.42;;;6.75;;
3941;SDS011;1985;48.592;8.850;2023-02-28T10:10:44;17.52;;;6.30;;
3941;SDS011;1985;48.592;8.850;2023-02-28T10:16:11;17.13;;;7.20;;
3941;SDS011;1985;48.592;8.850;2023-02-28T10:18:42;15.90;;;6.63;;
3941;SDS011;1985;48.592;8.850;2023-02-28T10:21:23;15.90;;;6.75;;
3941;SDS011;1985;48.592;8.850;2023-02-28T10:23:57;18.20;;;8.38;;
3941;SDS011;1985;48.592;8.850;2023-02-28T10:26:28;17.70;;;7.82;;
3941;SDS011;1985;48.592;8.850;2023-02-28T10:28:56;21.00;;;7.88;;
3941;SDS011;1985;48.592;8.850;2023-02-28T10:31:22;26.37;;;11.40;;
3941;SDS011;1985;48.592;8.850;2023-02-28T10:33:47;18.70;;;6.47;;
3941;SDS011;1985;48.592;8.850;2023-02-28T10:36:15;16.08;;;6.07;;
3941;SDS011;1985;48.592;8.850;2023-02-28T10:38:43;16.33;;;6.43;;
3941;SDS011;1985;48.592;8.850;2023-02-28T10:41:11;19.08;;;7.40;;
3941;SDS011;1985;48.592;8.850;2023-02-28T10:43:40;14.10;;;6.28;;
3941;SDS011;1985;48.592;8.850;2023-02-28T10:51:13;14.40;;;5.97;;
3941;SDS011;1985;48.592;8.850;2023-02-28T10:56:17;15.88;;;5.55;;
3941;SDS011;1985;48.592;8.850;2023-02-28T11:03:55;16.42;;;6.50;;
3941;SDS011;1985;48.592;8.850;2023-02-28T11:06:23;15.77;;;6.55;;
3941;SDS011;1985;48.592;8.850;2023-02-28T11:09:00;17.05;;;6.20;;
3941;SDS011;1985;48.592;8.850;2023-02-28T11:11:29;17.30;;;6.50;;
3941;SDS011;1985;48.592;8.850;2023-02-28T11:14:06;17.33;;;6.72;;
3941;SDS011;1985;48.592;8.850;2023-02-28T11:16:45;14.27;;;6.05;;
3941;SDS011;1985;48.592;8.850;2023-02-28T11:19:22;15.38;;;5.97;;
3941;SDS011;1985;48.592;8.850;2023-02-28T11:21:55;17.35;;;6.20;;
3941;SDS011;1985;48.592;8.850;2023-02-28T11:26:57;18.65;;;6.43;;
3941;SDS011;1985;48.592;8.850;2023-02-28T11:29:27;20.17;;;6.78;;
3941;SDS011;1985;48.592;8.850;2023-02-28T11:34:45;16.20;;;6.10;;
3941;SDS011;1985;48.592;8.850;2023-02-28T11:37:24;14.52;;;5.70;;
3941;SDS011;1985;48.592;8.850;2023-02-28T11:39:50;16.80;;;7.40;;
3941;SDS011;1985;48.592;8.850;2023-02-28T11:42:31;17.53;;;6.50;;
3941;SDS011;1985;48.592;8.850;2023-02-28T11:45:12;15.60;;;6.53;;
3941;SDS011;1985;48.592;8.850;2023-02-28T11:50:51;14.20;;;5.50;;
3941;SDS011;1985;48.592;8.850;2023-02-28T11:53:35;14.60;;;6.00;;
3941;SDS011;1985;48.592;8.850;2023-02-28T12:18:38;18.10;;;7.60;;
3941;SDS011;1985;48.592;8.850;2023-02-28T12:21:31;17.35;;;7.15;;
3941;SDS011;1985;48.592;8.850;2023-02-28T12:27:26;16.75;;;6.45;;
3941;SDS011;1985;48.592;8.850;2023-02-28T12:29:58;20.07;;;8.00;;
3941;SDS011;1985;48.592;8.850;2023-02-28T12:37:37;15.82;;;6.68;;
3941;SDS011;1985;48.592;8.850;2023-02-28T12:40:21;17.85;;;7.20;;
3941;SDS011;1985;48.592;8.850;2023-02-28T12:42:49;17.40;;;7.95;;
3941;SDS011;1985;48.592;8.850;2023-02-28T12:47:46;15.85;;;5.97;;
3941;SDS011;1985;48.592;8.850;2023-02-28T12:50:17;14.77;;;6.05;;
3941;SDS011;1985;48.592;8.850;2023-02-28T12:58:07;15.63;;;6.10;;
3941;SDS011;1985;48.592;8.850;2023-02-28T13:11:41;14.80;;;6.00;;
3941;SDS011;1985;48.592;8.850;2023-02-28T13:19:34;16.70;;;6.40;;
3941;SDS011;1985;48.592;8.850;2023-02-28T13:22:03;16.08;;;6.22;;
3941;SDS011;1985;48.592;8.850;2023-02-28T13:29:31;15.63;;;6.88;;
3941;SDS011;1985;48.592;8.850;2023-02-28T13:34:30;17.73;;;6.55;;
3941;SDS011;1985;48.592;8.850;2023-02-28T13:42:33;17.52;;;6.50;;
3941;SDS011;1985;48.592;8.850;2023-02-28T13:55:37;17.33;;;6.43;;
3941;SDS011;1985;48.592;8.850;2023-02-28T13:58:26;14.93;;;6.40;;
3941;SDS011;1985;48.592;8.850;2023-02-28T14:04:02;17.90;;;6.20;;
3941;SDS011;1985;48.592;8.850;2023-02-28T14:06:34;16.15;;;6.63;;
3941;SDS011;1985;48.592;8.850;2023-02-28T14:11:52;15.38;;;6.10;;
3941;SDS011;1985;48.592;8.850;2023-02-28T14:16:59;18.10;;;7.18;;
3941;SDS011;1985;48.592;8.850;2023-02-28T14:19:40;18.05;;;6.35;;
3941;SDS011;1985;48.592;8.850;2023-02-28T14:27:42;19.30;;;6.90;;
3941;SDS011;1985;48.592;8.850;2023-02-28T14:33:25;15.70;;;6.55;;
3941;SDS011;1985;48.592;8.850;2023-02-28T14:36:12;14.98;;;6.90;;
3941;SDS011;1985;48.592;8.850;2023-02-28T14:38:45;15.45;;;6.10;;
3941;SDS011;1985;48.592;8.850;2023-02-28T14:41:34;18.70;;;6.97;;
3941;SDS011;1985;48.592;8.850;2023-02-28T14:44:26;17.00;;;6.60;;
3941;SDS011;1985;48.592;8.850;2023-02-28T14:47:02;20.65;;;7.05;;
3941;SDS011;1985;48.592;8.850;2023-02-28T14:49:43;32.95;;;12.73;;
3941;SDS011;1985;48.592;8.850;2023-02-28T14:54:51;16.88;;;6.32;;
3941;SDS011;1985;48.592;8.850;2023-02-28T14:57:23;17.65;;;7.35;;
3941;SDS011;1985;48.592;8.850;2023-02-28T15:00:07;19.48;;;6.50;;
3941;SDS011;1985;48.592;8.850;2023-02-28T15:02:38;19.00;;;7.20;;
3941;SDS011;1985;48.592;8.850;2023-02-28T15:07:46;18.25;;;6.22;;
3941;SDS011;1985;48.592;8.850;2023-02-28T15:12:41;14.50;;;6.47;;
3941;SDS011;1985;48.592;8.850;2023-02-28T15:15:14;15.77;;;7.05;;
3941;SDS011;1985;48.592;8.850;2023-02-28T15:17:45;16.25;;;6.20;;
3941;SDS011;1985;48.592;8.850;2023-02-28T15:20:16;16.77;;;5.75;;
3941;SDS011;1985;48.592;8.850;2023-02-28T15:22:44;17.80;;;6.50;;
3941;SDS011;1985;48.592;8.850;2023-02-28T15:25:13;17.10;;;6.70;;
3941;SDS011;1985;48.592;8.850;2023-02-28T15:27:44;15.70;;;7.05;;
3941;SDS011;1985;48.592;8.850;2023-02-28T15:30:17;14.60;;;6.50;;
3941;SDS011;1985;48.592;8.850;2023-02-28T15:35:38;19.05;;;7.55;;
3941;SDS011;1985;48.592;8.850;2023-02-28T15:40:50;17.60;;;6.28;;
3941;SDS011;1985;48.592;8.850;2023-02-28T15:43:30;17.17;;;6.43;;
3941;SDS011;1985;48.592;8.850;2023-02-28T15:45:59;17.02;;;6.50;;
3941;SDS011;1985;48.592;8.850;2023-02-28T15:53:56;15.85;;;6.20;;
3941;SDS011;1985;48.592;8.850;2023-02-28T15:56:28;15.85;;;6.18;;
3941;SDS011;1985;48.592;8.850;2023-02-28T15:58:57;16.67;;;6.35;;
3941;SDS011;1985;48.592;8.850;2023-02-28T16:01:45;20.35;;;8.48;;
3941;SDS011;1985;48.592;8.850;2023-02-28T16:09:18;16.25;;;6.75;;
3941;SDS011;1985;48.592;8.850;2023-02-28T16:11:48;17.02;;;7.00;;
3941;SDS011;1985;48.592;8.850;2023-02-28T16:14:19;17.83;;;7.28;;
3941;SDS011;1985;48.592;8.850;2023-02-28T16:16:54;17.27;;;6.93;;
3941;SDS011;1985;48.592;8.850;2023-02-28T16:19:21;16.35;;;6.57;;
3941;SDS011;1985;48.592;8.850;2023-02-28T16:21:47;17.48;;;7.50;;
3941;SDS011;1985;48.592;8.850;2023-02-28T16:24:13;17.60;;;6.60;;
3941;SDS011;1985;48.592;8.850;2023-02-28T16:26:40;18.47;;;7.50;;
3941;SDS011;1985;48.592;8.850;2023-02-28T16:29:10;16.30;;;6.72;;
3941;SDS011;1985;48.592;8.850;2023-02-28T16:31:43;20.15;;;8.32;;
3941;SDS011;1985;48.592;8.850;2023-02-28T16:34:09;17.88;;;6.38;;
3941;SDS011;1985;48.592;8.850;2023-02-28T16:36:35;16.43;;;6.93;;
3941;SDS011;1985;48.592;8.850;2023-02-28T16:39:00;16.00;;;6.20;;
3941;SDS011;1985;48.592;8.850;2023-02-28T16:41:27;17.33;;;6.60;;
3941;SDS011;1985;48.592;8.850;2023-02-28T16:43:54;20.83;;;6.90;;
3941;SDS011;1985;48.592;8.850;2023-02-28T16:46:26;15.32;;;7.03;;
3941;SDS011;1985;48.592;8.850;2023-02-28T16:48:56;16.40;;;6.50;;
3941;SDS011;1985;48.592;8.850;2023-02-28T16:51:22;19.15;;;7.10;;
3941;SDS011;1985;48.592;8.850;2023-02-28T16:53:47;17.15;;;6.70;;
3941;SDS011;1985;48.592;8.850;2023-02-28T16:56:20;17.25;;;6.18;;
3941;SDS011;1985;48.592;8.850;2023-02-28T16:58:48;14.63;;;6.45;;
3941;SDS011;1985;48.592;8.850;2023-02-28T17:01:15;17.13;;;7.20;;
3941;SDS011;1985;48.592;8.850;2023-02-28T17:03:41;22.17;;;8.98;;
3941;SDS011;1985;48.592;8.850;2023-02-28T17:06:16;21.73;;;9.18;;
3941;SDS011;1985;48.592;8.850;2023-02-28T17:08:44;22.63;;;9.60;;
3941;SDS011;1985;48.592;8.850;2023-02-28T17:11:09;18.77;;;7.40;;
3941;SDS011;1985;48.592;8.850;2023-02-28T17:13:35;18.80;;;7.20;;
3941;SDS011;1985;48.592;8.850;2023-02-28T17:16:02;15.23;;;6.53;;
3941;SDS011;1985;48.592;8.850;2023-02-28T17:18:27;16.93;;;6.60;;
3941;SDS011;1985;48.592;8.850;2023-02-28T17:20:58;15.18;;;6.80;;
3941;SDS011;1985;48.592;8.850;2023-02-28T17:23:24;13.30;;;5.90;;
3941;SDS011;1985;48.592;8.850;2023-02-28T17:25:50;17.77;;;7.00;;
3941;SDS011;1985;48.592;8.850;2023-02-28T17:28:21;14.80;;;6.20;;
3941;SDS011;1985;48.592;8.850;2023-02-28T17:30:47;18.15;;;7.10;;
3941;SDS011;1985;48.592;8.850;2023-02-28T17:33:14;17.83;;;6.72;;
3941;SDS011;1985;48.592;8.850;2023-02-28T17:35:40;18.25;;;6.70;;
3941;SDS011;1985;48.592;8.850;2023-02-28T17:38:12;18.27;;;7.40;;
3941;SDS011;1985;48.592;8.850;2023-02-28T17:40:43;16.35;;;7.60;;
3941;SDS011;1985;48.592;8.850;2023-02-28T17:43:09;15.60;;;7.00;;
3941;SDS011;1985;48.592;8.850;2023-02-28T17:45:35;22.73;;;7.50;;
3941;SDS011;1985;48.592;8.850;2023-02-28T17:48:01;15.95;;;6.90;;
3941;SDS011;1985;48.592;8.850;2023-02-28T17:50:27;18.27;;;7.03;;
3941;SDS011;1985;48.592;8.850;2023-02-28T17:52:53;19.13;;;8.13;;
3941;SDS011;1985;48.592;8.850;2023-02-28T17:55:19;15.93;;;7.50;;
3941;SDS011;1985;48.592;8.850;2023-02-28T17:57:45;16.87;;;7.17;;
3941;SDS011;1985;48.592;8.850;2023-02-28T18:00:14;19.80;;;7.53;;
3941;SDS011;1985;48.592;8.850;2023-02-28T18:02:41;16.38;;;6.90;;
3941;SDS011;1985;48.592;8.850;2023-02-28T18:05:08;17.25;;;7.82;;
3941;SDS011;1985;48.592;8.850;2023-02-28T18:07:35;16.10;;;6.80;;
3941;SDS011;1985;48.592;8.850;2023-02-28T18:10:02;19.45;;;7.93;;
3941;SDS011;1985;48.592;8.850;2023-02-28T18:12:28;18.20;;;7.78;;
3941;SDS011;1985;48.592;8.850;2023-02-28T18:14:54;18.10;;;7.70;;
3941;SDS011;1985;48.592;8.850;2023-02-28T18:17:19;18.40;;;7.65;;
3941;SDS011;1985;48.592;8.850;2023-02-28T18:19:45;20.05;;;7.47;;
3941;SDS011;1985;48.592;8.850;2023-02-28T18:22:11;17.98;;;8.35;;
3941;SDS011;1985;48.592;8.850;2023-02-28T18:24:36;19.67;;;8.30;;
3941;SDS011;1985;48.592;8.850;2023-02-28T18:27:02;21.20;;;8.77;;
3941;SDS011;1985;48.592;8.850;2023-02-28T18:29:28;20.40;;;8.88;;